Le Marin, Martinique
Current Conditions -  °F | °C
As of 9:00 PM on Friday 24 Oct 2014 (Local Time) from TFFF Reporting Station
Few Clouds Few Clouds  
Wind Chill: 81°   Ceiling: Unl
Heat Index: 85°   Visibility: 6mi
Dew Point: 73°   Wind: 5mph
Humidity: 79%   Direction: 60°ENE
Pressure: 29.88"   Gusts: NA
Location:  14.47°N, 60.87°W
Report Text: TFFF 250100Z AUTO 06004KT 9999 FEW026 27/23 Q1012
Loading
Personal Weather Stations






























Interactive Weather Map
Tropical Storm Tracking
New forecast layout! Learn more

10-Day Weather Forecast

Advertisements
Track Severe Weather on mobile